Time;durP1;ratioP1;P1;durP2;ratioP2;P2;SDS_P1;SDS_P2;PMS_P1;PMS_P2;Temp;Humidity;BMP_temperature;BMP_pressure;BME280_temperature;BME280_humidity;BME280_pressure;Samples;Min_cycle;Max_cycle;Signal;HPM_P1;HPM_P2
2023/08/23 00:00:25;;;;;;;26.48;23.65;;;21.40;99.90;;;;;;5080922;28;20051;-75
2023/08/23 00:02:53;;;;;;;27.88;23.67;;;21.30;99.90;;;;;;5079926;28;20059;-76
2023/08/23 00:05:21;;;;;;;25.92;23.13;;;21.30;99.90;;;;;;5073526;28;20041;-75
2023/08/23 00:07:48;;;;;;;26.90;23.30;;;21.30;99.90;;;;;;5073579;28;20917;-75
2023/08/23 00:10:16;;;;;;;26.80;22.70;;;21.30;99.90;;;;;;5078216;28;20511;-77
2023/08/23 00:12:43;;;;;;;26.88;23.90;;;21.30;99.90;;;;;;5069949;28;20059;-77
2023/08/23 00:15:11;;;;;;;27.13;24.40;;;21.20;99.90;;;;;;5081686;28;20048;-76
2023/08/23 00:17:40;;;;;;;26.83;24.02;;;21.00;99.90;;;;;;5074656;28;20059;-77
2023/08/23 00:20:09;;;;;;;25.95;23.20;;;20.80;99.90;;;;;;5092513;28;20045;-76
2023/08/23 00:22:37;;;;;;;25.67;23.08;;;20.90;99.90;;;;;;5068919;28;20045;-76
2023/08/23 00:25:05;;;;;;;25.13;22.67;;;20.90;99.90;;;;;;5078617;28;20052;-76
2023/08/23 00:27:33;;;;;;;25.75;22.95;;;20.90;99.90;;;;;;5069528;28;20055;-75
2023/08/23 00:30:00;;;;;;;24.77;22.40;;;20.90;99.90;;;;;;5069801;28;20052;-77
2023/08/23 00:32:28;;;;;;;27.35;24.42;;;20.90;99.90;;;;;;5068880;28;20121;-75
2023/08/23 00:34:58;;;;;;;25.98;23.25;;;20.90;99.90;;;;;;5070725;28;20051;-75
2023/08/23 00:37:25;;;;;;;28.02;24.98;;;20.70;99.90;;;;;;5068980;28;20075;-75
2023/08/23 00:39:53;;;;;;;27.10;24.10;;;20.60;99.90;;;;;;5081019;28;20044;-75
2023/08/23 00:42:20;;;;;;;25.35;22.48;;;20.60;99.90;;;;;;5082240;28;20162;-76
2023/08/23 00:44:48;;;;;;;25.15;22.77;;;20.60;99.90;;;;;;5080322;28;20505;-76
2023/08/23 00:47:15;;;;;;;26.25;23.67;;;20.70;99.90;;;;;;5082023;28;20041;-76
2023/08/23 00:49:46;;;;;;;25.15;22.70;;;20.70;99.90;;;;;;5082096;28;20044;-77
2023/08/23 00:52:16;;;;;;;27.40;24.40;;;20.70;99.90;;;;;;5096295;28;20055;-76
2023/08/23 00:54:45;;;;;;;26.55;23.50;;;20.70;99.90;;;;;;5094780;28;20032;-74
2023/08/23 00:57:14;;;;;;;25.95;23.35;;;20.80;99.90;;;;;;5093872;28;20437;-76
2023/08/23 00:59:41;;;;;;;26.25;23.60;;;20.80;99.90;;;;;;5086391;28;20044;-76
2023/08/23 01:02:10;;;;;;;32.72;29.23;;;20.70;99.90;;;;;;5081469;28;20067;-76
2023/08/23 01:04:37;;;;;;;25.17;22.67;;;20.70;99.90;;;;;;5093020;28;20048;-77
2023/08/23 01:07:12;;;;;;;27.27;24.38;;;20.70;99.90;;;;;;5095575;28;20087;-76
2023/08/23 01:09:51;;;;;;;35.17;30.95;;;20.60;99.90;;;;;;5095244;28;20047;-75
2023/08/23 01:12:27;;;;;;;26.98;24.38;;;20.60;99.90;;;;;;5104288;28;20053;-77
2023/08/23 01:15:06;;;;;;;28.08;24.35;;;20.60;99.90;;;;;;5098536;28;20071;-75
2023/08/23 01:17:36;;;;;;;27.00;24.40;;;20.50;99.90;;;;;;5090770;28;20104;-79
2023/08/23 01:20:06;;;;;;;26.85;23.73;;;20.50;99.90;;;;;;5092783;28;20051;-75
2023/08/23 01:22:39;;;;;;;27.52;24.58;;;20.50;99.90;;;;;;5068894;28;20043;-74
2023/08/23 01:25:16;;;;;;;27.58;24.67;;;20.50;99.90;;;;;;5070876;28;20126;-74
2023/08/23 01:27:47;;;;;;;26.95;24.05;;;20.40;99.90;;;;;;5082272;28;20168;-76
2023/08/23 01:30:18;;;;;;;26.63;23.20;;;20.40;99.90;;;;;;5072064;28;20127;-75
2023/08/23 01:32:52;;;;;;;27.77;23.95;;;20.40;99.90;;;;;;5084699;28;20075;-76
2023/08/23 01:35:24;;;;;;;27.15;24.35;;;20.40;99.90;;;;;;5088239;28;20111;-75
2023/08/23 01:37:53;;;;;;;26.48;23.75;;;20.30;99.90;;;;;;5066688;28;20055;-74
2023/08/23 01:40:23;;;;;;;27.23;24.33;;;20.30;99.90;;;;;;5075524;28;20058;-76
2023/08/23 01:42:53;;;;;;;28.10;24.55;;;20.40;99.90;;;;;;5069102;28;20533;-76
2023/08/23 01:45:20;;;;;;;28.58;25.58;;;20.30;99.90;;;;;;5067806;28;20401;-75
2023/08/23 01:47:49;;;;;;;27.80;25.00;;;20.20;99.90;;;;;;5077991;28;20132;-75
2023/08/23 01:50:17;;;;;;;28.88;25.83;;;20.20;99.90;;;;;;5074465;28;20037;-76
2023/08/23 01:52:44;;;;;;;28.52;25.38;;;20.30;99.90;;;;;;5076860;28;20052;-75
2023/08/23 01:55:12;;;;;;;28.13;25.27;;;20.20;99.90;;;;;;5078762;28;20044;-76
2023/08/23 01:57:41;;;;;;;27.95;24.92;;;20.20;99.90;;;;;;5076781;28;20571;-75
2023/08/23 02:00:10;;;;;;;27.10;24.30;;;20.20;99.90;;;;;;5067395;28;20052;-77
2023/08/23 02:02:41;;;;;;;25.73;23.23;;;20.20;99.90;;;;;;5076952;28;20135;-77
2023/08/23 02:05:09;;;;;;;26.83;23.98;;;20.10;99.90;;;;;;5065540;28;20108;-76
2023/08/23 02:07:36;;;;;;;27.85;25.05;;;20.10;99.90;;;;;;5093488;28;20141;-75
2023/08/23 02:10:05;;;;;;;28.42;25.33;;;20.10;99.90;;;;;;5067483;28;20105;-76
2023/08/23 02:12:34;;;;;;;26.13;23.40;;;20.00;99.90;;;;;;5075850;28;20049;-74
2023/08/23 02:15:03;;;;;;;27.15;24.23;;;20.00;99.90;;;;;;5066683;28;20106;-78
2023/08/23 02:17:31;;;;;;;27.45;24.65;;;19.90;99.90;;;;;;5076192;28;20040;-75
2023/08/23 02:19:59;;;;;;;26.35;22.85;;;19.90;99.90;;;;;;5077224;28;20048;-78
2023/08/23 02:22:27;;;;;;;25.10;22.70;;;19.90;99.90;;;;;;5076945;28;20098;-76
2023/08/23 02:24:54;;;;;;;27.55;24.50;;;19.80;99.90;;;;;;5068009;28;20048;-75
2023/08/23 02:27:22;;;;;;;26.60;24.00;;;19.80;99.90;;;;;;5079870;28;20029;-76
2023/08/23 02:29:49;;;;;;;26.77;24.05;;;19.80;99.90;;;;;;5103406;28;20044;-78
2023/08/23 02:32:18;;;;;;;25.65;23.10;;;19.90;99.90;;;;;;5096495;28;20052;-75
2023/08/23 02:34:46;;;;;;;25.95;23.40;;;19.80;99.90;;;;;;5077376;28;20087;-74
2023/08/23 02:37:14;;;;;;;25.85;23.35;;;19.80;99.90;;;;;;5078978;28;20062;-75
2023/08/23 02:39:44;;;;;;;26.67;24.08;;;19.80;99.90;;;;;;5084234;28;20131;-79
2023/08/23 02:42:12;;;;;;;26.90;23.23;;;19.80;99.90;;;;;;5079317;28;20048;-79
2023/08/23 02:44:39;;;;;;;26.20;23.25;;;19.80;99.90;;;;;;5064254;28;20102;-74
2023/08/23 02:47:07;;;;;;;26.77;24.10;;;19.80;99.90;;;;;;5071221;28;20036;-75
2023/08/23 02:49:36;;;;;;;26.55;23.80;;;19.80;99.90;;;;;;5071044;28;20516;-76
2023/08/23 02:52:05;;;;;;;25.95;23.45;;;19.80;99.90;;;;;;5079147;28;20052;-77
2023/08/23 02:54:32;;;;;;;26.58;23.70;;;19.70;99.90;;;;;;5078300;28;20044;-74
2023/08/23 02:57:00;;;;;;;26.55;23.85;;;19.70;99.90;;;;;;5066258;28;20508;-74
2023/08/23 02:59:29;;;;;;;27.48;24.27;;;19.70;99.90;;;;;;5076362;28;20519;-75
2023/08/23 03:01:56;;;;;;;28.65;24.02;;;19.60;99.90;;;;;;5066747;28;20044;-75
2023/08/23 03:04:24;;;;;;;29.77;26.65;;;19.50;99.90;;;;;;5083175;28;20075;-76
2023/08/23 03:06:53;;;;;;;27.73;24.73;;;19.30;99.90;;;;;;5079937;28;20097;-76
2023/08/23 03:09:20;;;;;;;27.65;24.35;;;19.40;99.90;;;;;;5081320;28;20071;-76
2023/08/23 03:11:48;;;;;;;30.52;27.02;;;19.30;99.90;;;;;;5073222;28;20053;-74
2023/08/23 03:14:15;;;;;;;30.58;25.73;;;19.20;99.90;;;;;;5084860;28;20044;-77
2023/08/23 03:16:43;;;;;;;29.70;26.45;;;19.30;99.90;;;;;;5096915;22;20120;-84
2023/08/23 03:19:10;;;;;;;28.73;25.80;;;19.40;99.90;;;;;;5101384;28;20055;-83
2023/08/23 03:21:38;;;;;;;29.52;26.50;;;19.40;99.90;;;;;;5108927;27;20044;-84
2023/08/23 03:24:07;;;;;;;28.38;25.63;;;19.50;99.90;;;;;;5099278;28;20044;-84
2023/08/23 03:26:34;;;;;;;28.30;25.42;;;19.40;99.90;;;;;;5072832;28;20226;-83
2023/08/23 03:29:02;;;;;;;27.30;24.45;;;19.50;99.90;;;;;;5073950;28;20048;-85
2023/08/23 03:31:30;;;;;;;26.63;23.88;;;19.50;99.90;;;;;;5073652;28;20051;-85
2023/08/23 03:33:58;;;;;;;29.35;25.25;;;19.50;99.90;;;;;;5073105;28;20044;-84
2023/08/23 03:36:26;;;;;;;28.40;25.33;;;19.40;99.90;;;;;;5073672;28;20154;-84
2023/08/23 03:38:54;;;;;;;28.85;25.98;;;19.40;99.90;;;;;;5073153;28;20050;-85
2023/08/23 03:41:22;;;;;;;28.23;25.27;;;19.40;99.90;;;;;;5074695;28;20066;-86
2023/08/23 03:43:51;;;;;;;28.45;25.25;;;19.30;99.90;;;;;;5072789;28;20036;-87
2023/08/23 03:46:23;;;;;;;27.33;24.52;;;19.30;99.90;;;;;;5085776;28;20040;-85
2023/08/23 03:48:51;;;;;;;30.05;24.83;;;19.30;99.90;;;;;;5071380;28;20058;-86
2023/08/23 03:51:19;;;;;;;27.20;24.40;;;19.30;99.90;;;;;;5083423;28;20048;-86
2023/08/23 03:53:46;;;;;;;27.27;24.42;;;19.20;99.90;;;;;;5071951;28;20051;-84
2023/08/23 03:56:14;;;;;;;26.77;24.05;;;19.30;99.90;;;;;;5071681;28;20508;-86
2023/08/23 03:58:42;;;;;;;26.05;23.33;;;19.20;99.90;;;;;;5099832;28;20055;-87
2023/08/23 04:01:10;;;;;;;26.13;23.40;;;19.20;99.90;;;;;;5071997;28;20079;-86
2023/08/23 04:03:37;;;;;;;27.02;24.38;;;19.20;99.90;;;;;;5098735;28;20044;-86
2023/08/23 04:06:05;;;;;;;27.80;24.98;;;19.20;99.90;;;;;;5071781;28;20059;-88
2023/08/23 04:08:33;;;;;;;31.52;25.73;;;19.20;99.90;;;;;;5072711;28;20040;-86
2023/08/23 04:11:00;;;;;;;26.58;23.98;;;19.20;99.90;;;;;;5100014;28;20055;-86
2023/08/23 04:13:28;;;;;;;27.30;24.58;;;19.10;99.90;;;;;;5071967;28;20563;-85
2023/08/23 04:15:57;;;;;;;26.55;24.00;;;19.20;99.90;;;;;;5071011;28;20100;-84
2023/08/23 04:18:24;;;;;;;28.25;24.60;;;19.20;99.90;;;;;;5096034;28;20654;-85
2023/08/23 04:20:59;;;;;;;25.85;23.25;;;19.20;99.90;;;;;;5097533;28;20038;-86
2023/08/23 04:23:27;;;;;;;27.13;24.42;;;19.30;99.90;;;;;;5073077;28;20064;-86
2023/08/23 04:25:55;;;;;;;28.30;23.08;;;19.40;99.90;;;;;;5071152;28;20051;-85
2023/08/23 04:28:23;;;;;;;26.73;23.92;;;19.50;99.90;;;;;;5070340;28;20052;-85
2023/08/23 04:30:50;;;;;;;31.80;24.55;;;19.50;99.90;;;;;;5097805;28;20377;-84
2023/08/23 04:33:20;;;;;;;26.42;23.65;;;19.60;99.90;;;;;;5097647;28;20048;-84
2023/08/23 04:35:48;;;;;;;26.75;23.92;;;19.80;99.90;;;;;;5098728;28;20051;-85
2023/08/23 04:38:15;;;;;;;26.23;22.52;;;19.80;99.90;;;;;;5073613;28;20064;-83
2023/08/23 04:40:43;;;;;;;26.70;23.20;;;19.90;99.90;;;;;;5090165;28;20047;-83
2023/08/23 04:43:13;;;;;;;25.27;22.40;;;20.00;99.90;;;;;;5090790;28;20040;-86
2023/08/23 04:45:41;;;;;;;25.15;22.65;;;20.00;99.90;;;;;;5095544;28;20071;-86
2023/08/23 04:48:11;;;;;;;27.90;24.15;;;20.10;99.90;;;;;;5088050;28;20043;-85
2023/08/23 04:50:41;;;;;;;25.23;22.73;;;20.20;99.90;;;;;;5090827;28;20067;-86
2023/08/23 04:53:09;;;;;;;25.00;22.50;;;20.30;99.90;;;;;;5120928;28;20035;-84
2023/08/23 04:55:36;;;;;;;39.10;33.42;;;20.40;99.90;;;;;;5071214;28;20036;-84
2023/08/23 04:58:04;;;;;;;34.28;26.52;;;20.50;99.90;;;;;;5089688;28;20065;-85
2023/08/23 05:00:32;;;;;;;25.75;22.60;;;20.60;99.90;;;;;;5072084;28;20494;-85
2023/08/23 05:02:59;;;;;;;25.08;22.35;;;20.70;99.90;;;;;;5070952;28;20402;-88
2023/08/23 05:05:27;;;;;;;24.48;22.08;;;20.80;99.90;;;;;;5103685;28;20048;-86
2023/08/23 05:07:56;;;;;;;23.55;21.05;;;20.90;99.90;;;;;;5071927;28;20357;-84
2023/08/23 05:10:25;;;;;;;24.60;22.08;;;21.00;99.90;;;;;;5071659;28;20084;-86
2023/08/23 05:12:55;;;;;;;27.13;23.02;;;21.10;99.90;;;;;;5074712;28;20028;-87
2023/08/23 05:15:23;;;;;;;26.60;23.05;;;21.10;99.90;;;;;;5071054;28;20543;-87
2023/08/23 05:17:52;;;;;;;23.88;21.52;;;21.20;99.90;;;;;;5072172;28;20067;-86
2023/08/23 05:20:19;;;;;;;26.02;22.63;;;21.30;99.90;;;;;;5074291;28;20109;-86
2023/08/23 05:22:47;;;;;;;25.10;22.13;;;21.40;99.90;;;;;;5099673;28;20040;-86
2023/08/23 05:25:16;;;;;;;26.70;22.30;;;21.60;99.90;;;;;;5095469;28;20063;-85
2023/08/23 05:27:45;;;;;;;36.80;22.02;;;21.70;99.90;;;;;;5096107;28;20040;-89
2023/08/23 05:30:13;;;;;;;23.00;20.65;;;21.90;99.90;;;;;;5058521;28;20052;-89
2023/08/23 05:32:41;;;;;;;24.05;21.35;;;22.00;99.90;;;;;;5045207;28;20403;-86
2023/08/23 05:35:10;;;;;;;23.63;21.13;;;22.10;99.90;;;;;;5085282;28;20043;-89
2023/08/23 05:37:39;;;;;;;24.98;22.27;;;22.40;99.90;;;;;;5063934;28;20037;-88
2023/08/23 05:40:10;;;;;;;26.27;23.52;;;22.50;99.90;;;;;;5083609;28;20040;-90
2023/08/23 05:42:40;;;;;;;25.00;22.38;;;22.80;99.90;;;;;;5085333;28;20078;-90
2023/08/23 05:45:09;;;;;;;23.88;21.40;;;23.10;99.90;;;;;;5084131;28;20126;-89
2023/08/23 05:47:37;;;;;;;24.95;22.40;;;23.30;99.90;;;;;;5081155;28;20152;-88
2023/08/23 05:50:05;;;;;;;24.02;21.63;;;23.60;99.90;;;;;;5080587;28;20032;-87
2023/08/23 05:52:33;;;;;;;25.00;22.17;;;23.80;99.90;;;;;;5083022;28;20117;-91
2023/08/23 05:55:10;;;;;;;25.35;22.73;;;24.00;99.90;;;;;;5079405;28;20050;-87
2023/08/23 05:57:45;;;;;;;24.83;21.52;;;24.10;99.90;;;;;;5094344;28;20044;-90
2023/08/23 06:00:14;;;;;;;25.02;22.23;;;24.20;99.90;;;;;;5080538;28;20040;-90
2023/08/23 06:02:43;;;;;;;25.35;22.65;;;24.10;99.90;;;;;;5086241;28;20040;-90
2023/08/23 06:05:13;;;;;;;26.98;22.42;;;24.30;99.90;;;;;;5086417;28;20096;-90
2023/08/23 06:07:42;;;;;;;24.88;21.50;;;24.70;99.90;;;;;;5088051;28;20381;-91
2023/08/23 06:10:12;;;;;;;25.52;22.38;;;24.80;99.90;;;;;;5084048;28;20036;-90
2023/08/23 06:12:41;;;;;;;24.27;21.67;;;24.90;99.90;;;;;;5095345;28;20043;-91
2023/08/23 06:15:09;;;;;;;24.70;22.20;;;25.00;99.90;;;;;;5107464;28;20036;-88
2023/08/23 06:17:37;;;;;;;24.90;22.23;;;25.00;99.90;;;;;;5105709;28;20036;-89
2023/08/23 06:20:06;;;;;;;24.77;22.13;;;25.00;99.90;;;;;;5078537;28;20029;-91
2023/08/23 06:27:15;;;;;;;23.47;21.07;;;25.10;99.90;;;;;;5011562;28;20606;-87
2023/08/23 06:34:19;;;;;;;28.48;23.80;;;25.80;99.90;;;;;;4971991;28;20050;-88
2023/08/23 06:41:32;;;;;;;;;;;;;;;;;;;;;
2023/08/23 06:44:25;;;;;;;24.08;21.50;;;26.30;99.90;;;;;;4888791;28;20219;-84
2023/08/23 06:46:59;;;;;;;27.88;23.80;;;26.40;99.90;;;;;;4963498;28;20050;-83
2023/08/23 06:49:30;;;;;;;26.08;23.17;;;26.60;99.90;;;;;;4930501;29;20146;-82
2023/08/23 06:52:00;;;;;;;23.95;21.55;;;26.70;99.90;;;;;;4945850;28;20109;-84
2023/08/23 06:54:38;;;;;;;24.58;22.00;;;26.80;99.90;;;;;;4943497;28;20066;-83
2023/08/23 06:57:47;;;;;;;24.63;21.45;;;26.90;99.90;;;;;;4935787;28;20134;-83
2023/08/23 07:00:31;;;;;;;25.02;20.75;;;27.00;99.90;;;;;;4899556;28;20059;-83
2023/08/23 07:03:12;;;;;;;29.52;23.13;;;27.00;99.90;;;;;;4966802;28;20114;-85
2023/08/23 07:05:47;;;;;;;25.25;22.25;;;27.00;99.90;;;;;;5006766;28;20053;-86
2023/08/23 07:08:33;;;;;;;34.88;27.45;;;27.10;99.90;;;;;;5044638;28;20413;-84
2023/08/23 07:11:07;;;;;;;26.38;23.55;;;27.40;99.90;;;;;;5043407;28;20041;-86
2023/08/23 07:13:36;;;;;;;26.13;23.40;;;27.70;99.90;;;;;;5030434;28;20046;-82
2023/08/23 07:16:04;;;;;;;28.45;25.50;;;27.80;99.90;;;;;;5072235;28;20109;-84
2023/08/23 07:18:32;;;;;;;27.60;24.92;;;28.00;99.90;;;;;;5075044;28;20060;-82
2023/08/23 07:21:02;;;;;;;26.33;22.95;;;28.20;99.90;;;;;;5072014;28;20107;-82
2023/08/23 07:23:31;;;;;;;25.95;22.83;;;28.50;99.90;;;;;;5073337;28;20529;-84
2023/08/23 07:26:02;;;;;;;24.67;22.17;;;28.60;99.90;;;;;;5078528;28;20055;-84
2023/08/23 07:28:30;;;;;;;24.73;22.08;;;28.70;99.90;;;;;;5100824;28;20068;-82
2023/08/23 07:30:57;;;;;;;25.98;23.48;;;28.70;99.90;;;;;;5082680;28;20040;-83
2023/08/23 07:33:25;;;;;;;25.00;22.38;;;28.70;99.90;;;;;;5084163;28;20111;-82
2023/08/23 07:35:58;;;;;;;26.92;24.33;;;28.70;99.90;;;;;;5098393;28;20073;-87
2023/08/23 07:38:28;;;;;;;29.13;26.13;;;28.80;99.90;;;;;;5091940;28;20123;-85
2023/08/23 07:41:09;;;;;;;31.70;28.30;;;28.90;99.90;;;;;;5067900;28;20135;-84
2023/08/23 07:43:37;;;;;;;31.88;27.80;;;29.10;99.90;;;;;;5085916;28;20064;-80
2023/08/23 07:46:08;;;;;;;28.38;25.45;;;29.20;99.90;;;;;;5090701;28;20038;-87
2023/08/23 07:48:38;;;;;;;27.45;24.65;;;29.40;99.90;;;;;;5080374;28;20518;-87
2023/08/23 07:51:07;;;;;;;29.00;25.95;;;29.50;99.90;;;;;;5072580;28;20055;-84
2023/08/23 07:53:38;;;;;;;27.35;24.52;;;29.70;99.90;;;;;;5073076;28;20075;-86
2023/08/23 07:56:06;;;;;;;27.08;24.13;;;29.80;99.90;;;;;;5074833;28;20071;-87
2023/08/23 07:58:33;;;;;;;27.10;24.38;;;30.00;99.90;;;;;;5074238;28;20044;-85
2023/08/23 08:01:37;;;;;;;28.40;25.35;;;30.10;99.90;;;;;;5067749;28;20081;-87
2023/08/23 08:04:09;;;;;;;25.98;23.48;;;30.10;99.90;;;;;;5049024;28;20051;-86
2023/08/23 08:06:54;;;;;;;28.40;25.45;;;30.40;99.90;;;;;;5073759;28;20059;-86
2023/08/23 08:09:26;;;;;;;24.20;21.60;;;30.40;99.90;;;;;;5070161;28;20047;-87
2023/08/23 08:12:01;;;;;;;32.10;24.17;;;30.40;99.90;;;;;;5073136;28;20059;-86
2023/08/23 08:14:36;;;;;;;26.55;23.85;;;30.30;99.90;;;;;;5080277;28;20094;-87
2023/08/23 08:17:03;;;;;;;28.13;24.02;;;30.40;99.90;;;;;;5077373;28;20048;-84
2023/08/23 08:19:31;;;;;;;26.63;23.10;;;30.50;99.90;;;;;;5087770;28;20041;-86
2023/08/23 08:21:59;;;;;;;27.63;24.75;;;30.30;99.90;;;;;;5070603;28;20064;-88
2023/08/23 08:24:29;;;;;;;28.42;24.55;;;30.30;99.90;;;;;;5078954;28;20037;-88
2023/08/23 08:26:58;;;;;;;27.52;24.63;;;30.40;99.90;;;;;;5072727;28;20038;-87
2023/08/23 08:29:26;;;;;;;27.23;23.05;;;30.60;99.90;;;;;;5093793;28;20067;-87
2023/08/23 08:31:54;;;;;;;27.58;24.77;;;30.70;99.90;;;;;;5095435;28;20048;-85
2023/08/23 08:34:23;;;;;;;26.98;24.25;;;30.80;99.90;;;;;;5093863;28;20066;-85
2023/08/23 08:36:52;;;;;;;26.45;23.75;;;30.80;99.90;;;;;;5071900;28;20665;-83
2023/08/23 08:39:20;;;;;;;26.35;23.58;;;30.80;99.90;;;;;;5076104;28;20079;-85
2023/08/23 08:41:51;;;;;;;25.13;22.52;;;30.80;99.90;;;;;;5075989;28;20028;-83
2023/08/23 08:44:19;;;;;;;28.35;25.27;;;30.90;99.90;;;;;;5077523;28;20127;-82
2023/08/23 08:46:47;;;;;;;32.25;25.95;;;30.90;99.90;;;;;;5079733;28;20754;-82
2023/08/23 08:49:15;;;;;;;27.65;25.00;;;31.00;99.90;;;;;;5066371;28;20133;-82
2023/08/23 08:51:47;;;;;;;32.75;29.27;;;31.10;99.90;;;;;;5068678;28;20143;-83
2023/08/23 08:54:16;;;;;;;30.00;24.80;;;31.30;99.90;;;;;;5067471;28;20479;-83
2023/08/23 08:56:48;;;;;;;27.75;25.05;;;31.40;99.90;;;;;;5081853;28;20109;-83
2023/08/23 08:59:17;;;;;;;29.55;25.20;;;31.50;99.90;;;;;;5078887;28;20036;-82
2023/08/23 09:01:45;;;;;;;26.50;23.77;;;31.50;99.90;;;;;;5065877;28;20048;-83
2023/08/23 09:04:13;;;;;;;26.63;22.83;;;31.40;99.90;;;;;;5076740;28;20056;-81
2023/08/23 09:06:41;;;;;;;26.13;23.42;;;31.40;99.90;;;;;;5082895;28;20048;-81
2023/08/23 09:09:11;;;;;;;32.17;28.95;;;31.50;99.90;;;;;;5073850;28;20179;-81
2023/08/23 09:11:39;;;;;;;29.15;26.05;;;31.70;99.90;;;;;;5076067;28;20032;-82
2023/08/23 09:14:18;;;;;;;29.05;26.25;;;31.70;99.90;;;;;;5075714;28;20036;-82
2023/08/23 09:16:47;;;;;;;26.88;24.10;;;31.90;99.90;;;;;;5098303;22;20055;-81
2023/08/23 09:19:15;;;;;;;25.88;23.17;;;32.00;99.90;;;;;;5067239;28;20040;-79
2023/08/23 09:21:48;;;;;;;30.58;27.60;;;32.10;99.90;;;;;;5067279;28;20386;-83
2023/08/23 09:24:16;;;;;;;27.17;24.25;;;32.20;99.90;;;;;;5047276;28;20559;-81
2023/08/23 09:26:44;;;;;;;27.08;24.40;;;32.30;99.90;;;;;;5048337;28;20055;-82
2023/08/23 09:29:12;;;;;;;24.98;22.35;;;32.30;99.90;;;;;;5047923;28;20053;-82
2023/08/23 09:31:42;;;;;;;26.65;23.88;;;32.30;99.90;;;;;;5047185;28;20053;-80
2023/08/23 09:34:13;;;;;;;24.80;22.30;;;32.20;99.90;;;;;;5046723;28;20144;-82
2023/08/23 09:36:41;;;;;;;22.95;20.75;;;32.40;99.90;;;;;;5046242;28;20064;-82
2023/08/23 09:39:10;;;;;;;23.38;21.05;;;32.40;99.90;;;;;;5046709;28;20045;-82
2023/08/23 09:41:40;;;;;;;24.90;22.23;;;32.60;99.90;;;;;;5047532;28;20102;-83
2023/08/23 09:44:07;;;;;;;23.17;21.05;;;32.70;99.90;;;;;;5048445;28;20503;-83
2023/08/23 09:46:36;;;;;;;24.77;22.48;;;32.80;99.90;;;;;;5047152;28;20075;-83
2023/08/23 09:49:06;;;;;;;25.10;22.60;;;32.80;99.90;;;;;;5047393;28;20056;-82
2023/08/23 09:51:37;;;;;;;27.60;24.77;;;32.90;99.90;;;;;;5048004;28;20091;-81
2023/08/23 09:54:12;;;;;;;23.27;21.15;;;33.00;99.90;;;;;;5046655;28;20513;-82
2023/08/23 09:56:43;;;;;;;24.63;22.33;;;33.10;99.90;;;;;;5045473;28;20041;-82
2023/08/23 09:59:11;;;;;;;26.60;24.00;;;33.20;99.90;;;;;;5028521;28;20099;-83
2023/08/23 10:01:40;;;;;;;23.65;21.45;;;33.30;99.90;;;;;;5045468;28;20083;-85
2023/08/23 10:04:09;;;;;;;25.00;22.35;;;33.40;99.90;;;;;;5046399;28;20052;-81
2023/08/23 10:06:37;;;;;;;23.63;21.50;;;33.50;99.90;;;;;;5046405;28;20045;-83
2023/08/23 10:09:05;;;;;;;24.20;21.60;;;33.50;99.90;;;;;;5046086;28;20044;-82
2023/08/23 10:11:33;;;;;;;22.70;20.52;;;33.50;99.90;;;;;;5046130;28;20095;-83
2023/08/23 10:14:03;;;;;;;23.65;21.27;;;33.50;99.90;;;;;;5045963;28;20045;-81
2023/08/23 10:16:32;;;;;;;23.60;21.50;;;33.40;99.90;;;;;;5044901;28;20086;-82
2023/08/23 10:18:59;;;;;;;24.50;22.30;;;33.50;99.90;;;;;;5038198;28;20049;-81
2023/08/23 10:21:29;;;;;;;32.13;28.85;;;33.60;99.90;;;;;;5046277;28;20099;-82
2023/08/23 10:23:57;;;;;;;26.00;23.75;;;33.60;99.90;;;;;;5049387;28;20059;-81
2023/08/23 10:26:26;;;;;;;27.88;25.30;;;33.70;99.90;;;;;;5037525;28;20053;-82
2023/08/23 10:28:54;;;;;;;25.25;23.05;;;33.90;99.90;;;;;;5034477;28;20133;-81
2023/08/23 10:31:27;;;;;;;23.13;21.13;;;34.00;99.90;;;;;;5037777;28;20424;-83
2023/08/23 10:33:55;;;;;;;24.25;21.98;;;33.90;99.90;;;;;;5035925;28;20051;-82
2023/08/23 10:36:25;;;;;;;25.85;23.48;;;33.90;99.90;;;;;;5034788;28;20076;-82
2023/08/23 10:38:56;;;;;;;26.38;23.85;;;34.10;99.90;;;;;;5034781;28;20104;-82
2023/08/23 10:41:24;;;;;;;25.63;23.40;;;34.20;99.90;;;;;;5034273;28;20033;-81
2023/08/23 10:43:53;;;;;;;27.55;24.08;;;34.40;99.90;;;;;;5036114;28;20124;-81
2023/08/23 10:46:22;;;;;;;27.23;24.48;;;34.70;99.90;;;;;;5036461;28;20053;-81
2023/08/23 10:48:50;;;;;;;25.98;23.60;;;34.80;99.90;;;;;;5037250;28;20113;-82
2023/08/23 10:51:22;;;;;;;25.55;22.92;;;34.90;99.90;;;;;;5038993;28;20075;-81
2023/08/23 10:53:50;;;;;;;24.88;22.55;;;35.00;99.90;;;;;;5038207;28;20038;-81
2023/08/23 10:56:19;;;;;;;25.83;23.42;;;35.20;99.90;;;;;;5041684;28;20142;-81
2023/08/23 10:58:47;;;;;;;25.48;23.17;;;35.30;99.90;;;;;;5041553;28;20045;-81
2023/08/23 11:01:15;;;;;;;24.60;21.98;;;35.10;99.90;;;;;;5042663;28;20053;-82
2023/08/23 11:03:42;;;;;;;25.00;22.90;;;35.30;99.90;;;;;;5020146;28;20052;-81
2023/08/23 11:06:11;;;;;;;25.55;23.00;;;35.20;99.90;;;;;;5034117;28;20048;-81
2023/08/23 11:08:38;;;;;;;25.83;23.52;;;35.20;99.90;;;;;;5037127;28;20049;-82
2023/08/23 11:11:07;;;;;;;23.70;21.70;;;35.10;99.90;;;;;;5036179;28;20033;-81
2023/08/23 11:13:36;;;;;;;24.52;22.13;;;34.80;99.90;;;;;;5036229;28;20056;-82
2023/08/23 11:16:03;;;;;;;25.00;22.50;;;34.60;99.90;;;;;;5019964;28;20088;-84
2023/08/23 11:18:31;;;;;;;26.75;24.15;;;34.30;99.90;;;;;;5038186;28;20056;-84
2023/08/23 11:20:59;;;;;;;26.95;24.27;;;34.30;99.90;;;;;;5040461;28;20049;-84
2023/08/23 11:23:26;;;;;;;26.63;24.08;;;34.30;99.90;;;;;;5038926;28;20030;-83
2023/08/23 11:25:54;;;;;;;26.83;24.42;;;34.40;99.90;;;;;;5040532;28;20049;-84
2023/08/23 11:28:22;;;;;;;26.15;23.10;;;34.40;99.90;;;;;;5039368;28;20046;-83
2023/08/23 11:30:51;;;;;;;22.83;20.70;;;34.40;99.90;;;;;;5020798;28;20188;-82
2023/08/23 11:33:19;;;;;;;23.35;21.35;;;34.50;99.90;;;;;;5036887;28;20049;-82
2023/08/23 11:35:47;;;;;;;22.55;20.45;;;34.60;99.90;;;;;;5039899;28;20110;-82
2023/08/23 11:38:14;;;;;;;23.33;21.10;;;34.40;99.90;;;;;;5038755;28;20041;-81
2023/08/23 11:40:44;;;;;;;23.60;21.40;;;34.00;99.90;;;;;;5039915;28;20107;-82
2023/08/23 11:43:15;;;;;;;24.95;22.73;;;33.90;99.90;;;;;;5038619;28;20140;-81
2023/08/23 11:45:43;;;;;;;24.27;21.48;;;34.00;99.90;;;;;;5039380;28;20640;-80
2023/08/23 11:48:12;;;;;;;23.65;21.35;;;34.20;99.90;;;;;;5040131;28;20136;-82
2023/08/23 11:50:40;;;;;;;23.85;21.75;;;34.20;99.90;;;;;;5040068;28;20052;-81
2023/08/23 11:53:08;;;;;;;23.70;21.80;;;34.30;99.90;;;;;;5039836;28;20040;-81
2023/08/23 11:55:36;;;;;;;23.45;21.48;;;34.60;99.90;;;;;;5037383;28;20037;-81
2023/08/23 11:58:04;;;;;;;25.35;23.15;;;34.70;99.90;;;;;;5037256;28;20139;-81
2023/08/23 12:00:33;;;;;;;23.80;21.63;;;34.60;99.90;;;;;;5037757;28;20228;-81
2023/08/23 12:03:00;;;;;;;25.05;22.75;;;34.70;99.90;;;;;;5022112;28;20051;-81
2023/08/23 12:05:29;;;;;;;22.85;20.85;;;34.60;99.90;;;;;;5040048;28;20386;-78
2023/08/23 12:07:57;;;;;;;21.42;19.63;;;34.50;99.90;;;;;;5052899;28;20067;-81
2023/08/23 12:10:25;;;;;;;24.48;22.08;;;34.50;99.90;;;;;;5048731;28;20114;-81
2023/08/23 12:12:53;;;;;;;23.20;21.20;;;34.40;99.90;;;;;;5048195;28;20069;-81
2023/08/23 12:15:20;;;;;;;22.73;20.80;;;34.50;99.90;;;;;;5046642;28;20045;-81
2023/08/23 12:17:48;;;;;;;21.45;19.50;;;34.60;99.90;;;;;;5037236;28;20050;-78
2023/08/23 12:20:16;;;;;;;21.60;19.60;;;34.70;99.90;;;;;;5030665;28;20563;-82
2023/08/23 12:22:47;;;;;;;21.42;19.63;;;34.90;99.90;;;;;;5051509;28;20033;-81
2023/08/23 12:25:14;;;;;;;21.38;19.27;;;35.10;99.90;;;;;;5051417;28;20054;-81
2023/08/23 12:27:42;;;;;;;22.65;20.55;;;35.20;99.90;;;;;;5048804;28;20041;-80
2023/08/23 12:30:10;;;;;;;22.50;20.30;;;35.20;99.90;;;;;;5050581;28;20119;-84
2023/08/23 12:32:38;;;;;;;25.63;23.38;;;35.20;99.90;;;;;;5051769;28;20148;-85
2023/08/23 12:35:06;;;;;;;21.20;19.45;;;35.10;99.90;;;;;;5049896;28;20164;-83
2023/08/23 12:37:34;;;;;;;21.85;19.77;;;35.10;99.90;;;;;;5045807;28;20049;-83
2023/08/23 12:40:04;;;;;;;22.15;19.95;;;35.10;99.90;;;;;;5036779;28;20722;-83
2023/08/23 12:42:33;;;;;;;20.42;18.63;;;35.20;99.90;;;;;;5033607;28;20068;-82
2023/08/23 12:45:01;;;;;;;21.75;19.65;;;35.30;99.90;;;;;;5034930;28;20119;-83
2023/08/23 12:47:28;;;;;;;21.95;19.75;;;35.30;99.90;;;;;;5032986;28;20065;-82
2023/08/23 12:49:56;;;;;;;29.88;27.02;;;35.40;99.90;;;;;;5016680;28;20041;-80
2023/08/23 12:52:24;;;;;;;22.67;20.77;;;35.40;99.90;;;;;;5029600;28;20048;-82